Salem, Michigan
Current Conditions -  °F | °C
As of 3:53 PM on Sunday 23 Nov 2014 (Local Time) from KYIP Reporting Station
Overcast Overcast  
Wind Chill: 56°   Ceiling: 7000
Heat Index: 56°   Visibility: 10mi
Dew Point: 45°   Wind: 10mph
Humidity: 67%   Direction: 120°ESE
Pressure: 29.69"   Gusts: NA
Location:  42.41°N, 83.58°W
Report Text: KYIP 232053Z AUTO 12009KT 10SM FEW050 OVC070 13/07 A2969 RMK AO2 SLP053 T01330072 56045 TSNO
Loading
Personal Weather Stations






























Interactive Weather Map New forecast layout! Learn more

10-Day Weather Forecast

Advertisements
Track Severe Weather on mobile